createdAt,value
2018-12-04T00:01:11.401Z,12.00
2018-12-04T00:03:39.664Z,12.10
2018-12-04T00:06:08.019Z,12.00
2018-12-04T00:08:36.275Z,11.90
2018-12-04T00:11:04.646Z,11.70
2018-12-04T00:13:32.892Z,11.60
2018-12-04T00:16:01.206Z,11.50
2018-12-04T00:18:29.439Z,11.40
2018-12-04T00:20:57.666Z,11.40
2018-12-04T00:23:25.882Z,11.50
2018-12-04T00:25:54.150Z,11.40
2018-12-04T00:28:22.399Z,11.40
2018-12-04T00:30:50.752Z,11.40
2018-12-04T00:33:19.033Z,11.30
2018-12-04T00:35:47.294Z,11.20
2018-12-04T00:38:15.536Z,11.20
2018-12-04T00:40:43.813Z,11.10
2018-12-04T00:43:12.056Z,11.00
2018-12-04T00:45:40.323Z,10.90
2018-12-04T00:48:08.560Z,10.90
2018-12-04T00:50:36.847Z,10.80
2018-12-04T00:53:08.617Z,10.80
2018-12-04T00:55:40.208Z,10.80
2018-12-04T00:58:08.456Z,10.70
2018-12-04T01:00:36.863Z,10.60
2018-12-04T01:03:05.244Z,10.60
2018-12-04T01:05:33.482Z,10.50
2018-12-04T01:08:01.787Z,10.40
2018-12-04T01:10:30.137Z,10.50
2018-12-04T01:12:58.396Z,10.40
2018-12-04T01:15:26.820Z,10.00
2018-12-04T01:17:55.115Z,9.90
2018-12-04T01:20:23.343Z,9.70
2018-12-04T01:22:51.608Z,9.60
2018-12-04T01:25:19.893Z,9.60
2018-12-04T01:27:48.115Z,9.60
2018-12-04T01:30:16.425Z,9.60
2018-12-04T01:32:44.656Z,9.60
2018-12-04T01:35:12.909Z,9.60
2018-12-04T01:37:41.187Z,9.60
2018-12-04T01:40:09.536Z,9.70
2018-12-04T01:42:37.800Z,9.70
2018-12-04T01:45:07.183Z,9.60
2018-12-04T01:47:35.559Z,9.70
2018-12-04T01:50:04.623Z,9.70
2018-12-04T01:52:32.851Z,9.80
2018-12-04T01:55:01.285Z,9.80
2018-12-04T01:57:29.561Z,9.90
2018-12-04T01:59:57.818Z,9.90
2018-12-04T02:02:26.099Z,10.00
2018-12-04T02:04:54.419Z,10.00
2018-12-04T02:07:22.789Z,10.10
2018-12-04T02:09:51.070Z,10.10
2018-12-04T02:12:19.367Z,10.00
2018-12-04T02:14:47.621Z,10.00
2018-12-04T02:17:15.904Z,10.10
2018-12-04T02:19:44.167Z,10.00
2018-12-04T02:22:12.435Z,9.90
2018-12-04T02:24:40.675Z,10.00
2018-12-04T02:27:09.028Z,9.90
2018-12-04T02:29:37.252Z,9.80
2018-12-04T02:32:05.485Z,9.80
2018-12-04T02:34:33.744Z,9.80
2018-12-04T02:37:01.970Z,9.70
2018-12-04T02:39:30.270Z,9.60
2018-12-04T02:41:58.538Z,9.70
2018-12-04T02:44:26.757Z,9.70
2018-12-04T02:46:55.014Z,9.70
2018-12-04T02:49:23.298Z,9.80
2018-12-04T02:51:51.644Z,9.70
2018-12-04T02:54:19.933Z,9.80
2018-12-04T02:56:48.230Z,9.70
2018-12-04T02:59:16.532Z,9.70
2018-12-04T03:01:44.756Z,9.80
2018-12-04T03:04:13.074Z,9.70
2018-12-04T03:06:41.329Z,9.70
2018-12-04T03:09:09.551Z,9.60
2018-12-04T03:11:37.880Z,9.60
2018-12-04T03:14:06.136Z,9.60
2018-12-04T03:16:34.361Z,9.70
2018-12-04T03:19:02.618Z,9.60
2018-12-04T03:21:30.883Z,9.60
2018-12-04T03:23:59.143Z,9.50
2018-12-04T03:26:27.361Z,9.40
2018-12-04T03:28:55.623Z,9.30
2018-12-04T03:31:23.950Z,9.30
2018-12-04T03:33:52.209Z,9.30
2018-12-04T03:36:20.506Z,9.30
2018-12-04T03:38:48.817Z,9.30
2018-12-04T03:41:17.123Z,9.40
2018-12-04T03:43:45.406Z,9.40
2018-12-04T03:46:13.670Z,9.40
2018-12-04T03:48:41.926Z,9.40
2018-12-04T03:51:10.250Z,9.30
2018-12-04T03:53:38.474Z,9.20
2018-12-04T03:56:06.818Z,9.10
2018-12-04T03:58:35.125Z,9.20
2018-12-04T04:01:03.407Z,9.10
2018-12-04T04:03:31.641Z,9.10
2018-12-04T04:05:59.950Z,9.10
2018-12-04T04:08:28.174Z,9.10
2018-12-04T04:10:56.401Z,9.10
2018-12-04T04:13:24.694Z,9.20
2018-12-04T04:15:52.925Z,9.20
2018-12-04T04:18:21.215Z,9.20
2018-12-04T04:20:49.611Z,9.10
2018-12-04T04:23:17.965Z,9.20
2018-12-04T04:25:46.244Z,9.20
2018-12-04T04:28:14.498Z,9.10
2018-12-04T04:30:42.736Z,9.30
2018-12-04T04:33:10.985Z,9.30
2018-12-04T04:35:39.231Z,9.40
2018-12-04T04:38:07.566Z,9.40
2018-12-04T04:40:35.809Z,9.50
2018-12-04T04:43:04.270Z,9.60
2018-12-04T04:45:32.490Z,9.60
2018-12-04T04:48:00.862Z,9.60
2018-12-04T04:50:29.156Z,9.60
2018-12-04T04:52:57.412Z,9.60
2018-12-04T04:55:25.663Z,9.50
2018-12-04T04:57:53.903Z,9.40
2018-12-04T05:00:22.150Z,9.50
2018-12-04T05:02:50.380Z,9.50
2018-12-04T05:05:18.756Z,9.50
2018-12-04T05:07:47.023Z,9.40
2018-12-04T05:10:15.311Z,9.40
2018-12-04T05:12:43.677Z,9.50
2018-12-04T05:15:12.059Z,9.30
2018-12-04T05:17:40.293Z,9.30
2018-12-04T05:20:08.910Z,9.40
2018-12-04T05:22:37.300Z,9.30
2018-12-04T05:25:06.460Z,9.30
2018-12-04T05:27:34.757Z,9.50
2018-12-04T05:30:03.181Z,9.50
2018-12-04T05:32:31.412Z,9.40
2018-12-04T05:34:59.683Z,9.40
2018-12-04T05:37:27.976Z,9.40
2018-12-04T05:39:56.265Z,9.40
2018-12-04T05:42:24.526Z,9.30
2018-12-04T05:44:52.800Z,9.30
2018-12-04T05:48:24.432Z,9.30
2018-12-04T05:50:52.695Z,9.30
2018-12-04T05:53:41.208Z,9.30
2018-12-04T05:56:11.916Z,9.30
2018-12-04T05:58:40.183Z,9.30
2018-12-04T06:01:08.421Z,9.40
2018-12-04T06:03:36.646Z,9.50
2018-12-04T06:06:04.980Z,9.50
2018-12-04T06:08:33.239Z,9.50
2018-12-04T06:11:01.540Z,9.50
2018-12-04T06:13:29.760Z,9.50
2018-12-04T06:15:58.036Z,9.50
2018-12-04T06:18:26.358Z,9.20
2018-12-04T06:20:54.661Z,9.10
2018-12-04T06:23:22.887Z,9.10
2018-12-04T06:25:51.199Z,9.10
2018-12-04T06:28:19.432Z,9.00
2018-12-04T06:30:47.741Z,9.10
2018-12-04T06:33:16.063Z,9.10
2018-12-04T06:35:44.350Z,9.20
2018-12-04T06:38:12.627Z,9.10
2018-12-04T06:40:40.997Z,9.00
2018-12-04T06:43:09.358Z,9.10
2018-12-04T06:45:37.704Z,9.10
2018-12-04T06:48:05.999Z,9.00
2018-12-04T06:50:34.283Z,9.00
2018-12-04T06:53:02.574Z,8.90
2018-12-04T06:55:30.994Z,8.80
2018-12-04T06:57:59.348Z,8.80
2018-12-04T07:00:27.604Z,8.80
2018-12-04T07:02:55.865Z,8.80
2018-12-04T07:05:24.136Z,8.80
2018-12-04T07:07:52.480Z,8.80
2018-12-04T07:10:20.752Z,8.70
2018-12-04T07:12:49.023Z,8.50
2018-12-04T07:15:17.343Z,8.50
2018-12-04T07:17:45.607Z,8.40
2018-12-04T07:20:13.964Z,8.30
2018-12-04T07:22:42.231Z,8.40
2018-12-04T07:25:10.458Z,8.50
2018-12-04T07:27:38.731Z,8.50
2018-12-04T07:30:08.512Z,8.60
2018-12-04T07:32:38.923Z,8.60
2018-12-04T07:35:08.336Z,8.70
2018-12-04T07:37:36.655Z,8.60
2018-12-04T07:40:05.735Z,8.70
2018-12-04T07:42:33.959Z,8.80
2018-12-04T07:45:02.193Z,8.70
2018-12-04T07:47:30.455Z,8.70
2018-12-04T07:49:58.697Z,8.80
2018-12-04T07:52:27.083Z,8.80
2018-12-04T07:54:55.412Z,8.80
2018-12-04T07:57:23.673Z,8.70
2018-12-04T07:59:51.877Z,8.70
2018-12-04T08:02:20.175Z,8.60
2018-12-04T08:04:55.095Z,8.70
2018-12-04T08:07:23.335Z,8.70
2018-12-04T08:09:51.573Z,8.80
2018-12-04T08:12:19.870Z,8.90
2018-12-04T08:14:48.067Z,8.90
2018-12-04T08:17:16.284Z,9.10
2018-12-04T08:19:44.543Z,9.10
2018-12-04T08:22:12.774Z,9.20
2018-12-04T08:24:41.064Z,9.30
2018-12-04T08:27:10.827Z,9.50
2018-12-04T08:29:39.075Z,9.60
2018-12-04T08:32:07.452Z,9.60
2018-12-04T08:34:35.726Z,9.70
2018-12-04T08:37:04.079Z,9.70
2018-12-04T08:39:32.329Z,9.70
2018-12-04T08:42:00.524Z,9.60
2018-12-04T08:44:28.774Z,9.80
2018-12-04T08:46:57.025Z,9.90
2018-12-04T08:49:25.270Z,10.10
2018-12-04T08:51:53.584Z,10.30
2018-12-04T08:54:21.793Z,10.10
2018-12-04T08:56:50.031Z,10.00
2018-12-04T08:59:18.271Z,9.90
2018-12-04T09:01:46.483Z,9.90
2018-12-04T09:04:14.772Z,9.90
2018-12-04T09:06:43.058Z,9.60
2018-12-04T09:09:11.885Z,9.60
2018-12-04T09:11:40.245Z,9.60
2018-12-04T09:14:08.529Z,9.80
2018-12-04T09:16:36.844Z,10.00
2018-12-04T09:19:05.224Z,10.10
2018-12-04T09:21:33.611Z,10.20
2018-12-04T09:24:01.935Z,10.00
2018-12-04T09:26:30.338Z,9.90
2018-12-04T09:28:58.745Z,10.00
2018-12-04T09:31:27.094Z,10.20
2018-12-04T09:33:55.400Z,10.20
2018-12-04T09:36:23.780Z,9.90
2018-12-04T09:38:52.089Z,10.00
2018-12-04T09:41:20.494Z,10.20
2018-12-04T09:43:48.793Z,10.40
2018-12-04T09:46:17.055Z,10.50
2018-12-04T09:48:45.380Z,10.60
2018-12-04T09:51:13.606Z,10.60
2018-12-04T09:53:42.107Z,10.50
2018-12-04T09:56:10.424Z,10.50
2018-12-04T09:58:38.693Z,10.50
2018-12-04T10:01:07.097Z,10.60
2018-12-04T10:03:35.478Z,10.70
2018-12-04T10:06:03.809Z,10.80
2018-12-04T10:08:32.206Z,11.10
2018-12-04T10:11:00.613Z,11.30
2018-12-04T10:13:29.025Z,11.20
2018-12-04T10:15:57.524Z,11.30
2018-12-04T10:18:25.924Z,11.20
2018-12-04T10:20:54.347Z,11.40
2018-12-04T10:23:22.733Z,11.60
2018-12-04T10:25:51.755Z,11.00
2018-12-04T10:28:20.657Z,10.80
2018-12-04T10:30:54.613Z,10.70
2018-12-04T10:33:23.089Z,10.60
2018-12-04T10:35:51.348Z,10.70
2018-12-04T10:38:19.625Z,10.80
2018-12-04T10:40:47.877Z,10.80
2018-12-04T10:43:16.114Z,10.50
2018-12-04T10:45:44.563Z,10.40
2018-12-04T10:48:12.887Z,10.10
2018-12-04T10:50:41.123Z,9.80
2018-12-04T10:53:09.370Z,10.00
2018-12-04T10:55:37.958Z,10.10
2018-12-04T10:58:06.234Z,10.30
2018-12-04T11:00:43.594Z,10.60
2018-12-04T11:03:14.069Z,11.10
2018-12-04T11:05:42.873Z,11.30
2018-12-04T11:08:11.093Z,11.70
2018-12-04T11:10:39.501Z,11.90
2018-12-04T11:13:07.775Z,11.80
2018-12-04T11:15:36.049Z,11.50
2018-12-04T11:18:04.571Z,11.30
2018-12-04T11:20:33.033Z,11.10
2018-12-04T11:23:01.403Z,11.20
2018-12-04T11:25:29.731Z,11.30
2018-12-04T11:27:58.165Z,11.40
2018-12-04T11:30:26.614Z,11.20
2018-12-04T11:32:54.871Z,10.90
2018-12-04T11:35:24.456Z,11.50
2018-12-04T11:37:52.830Z,13.20
2018-12-04T11:40:21.346Z,13.30
2018-12-04T11:42:49.667Z,14.60
2018-12-04T11:45:18.096Z,13.50
2018-12-04T11:47:50.437Z,13.30
2018-12-04T11:50:18.978Z,12.80
2018-12-04T11:52:47.423Z,12.10
2018-12-04T11:55:16.006Z,11.60
2018-12-04T11:57:44.246Z,11.50
2018-12-04T12:00:16.725Z,11.40
2018-12-04T12:02:45.276Z,11.00
2018-12-04T12:05:13.601Z,10.90
2018-12-04T12:07:41.887Z,10.80
2018-12-04T12:10:10.316Z,10.70
2018-12-04T12:12:39.815Z,10.70
2018-12-04T12:15:08.377Z,10.90
2018-12-04T12:17:36.766Z,11.70
2018-12-04T12:20:05.746Z,14.30
2018-12-04T12:22:34.510Z,15.60
2018-12-04T12:25:02.857Z,17.00
2018-12-04T12:27:34.573Z,16.80
2018-12-04T12:30:03.259Z,15.20
2018-12-04T12:32:31.681Z,13.30
2018-12-04T12:34:59.925Z,12.30
2018-12-04T12:37:28.476Z,12.00
2018-12-04T12:39:56.899Z,14.30
2018-12-04T12:42:25.224Z,16.60
2018-12-04T12:44:56.642Z,17.30
2018-12-04T12:47:26.545Z,17.50
2018-12-04T12:49:55.028Z,17.90
2018-12-04T12:52:23.454Z,18.00
2018-12-04T12:54:51.811Z,17.70
2018-12-04T12:57:20.159Z,18.30
2018-12-04T12:59:48.501Z,18.20
2018-12-04T13:02:21.946Z,18.50
2018-12-04T13:04:50.470Z,18.20
2018-12-04T13:07:18.875Z,17.90
2018-12-04T13:09:47.212Z,18.40
2018-12-04T13:12:15.713Z,18.20
2018-12-04T13:14:44.284Z,17.40
2018-12-04T13:17:12.630Z,15.30
2018-12-04T13:19:43.921Z,14.60
2018-12-04T13:22:12.256Z,13.60
2018-12-04T13:24:40.719Z,12.60
2018-12-04T13:27:09.105Z,12.80
2018-12-04T13:29:37.453Z,12.90
2018-12-04T13:32:05.982Z,12.90
2018-12-04T13:34:34.790Z,12.90
2018-12-04T13:37:06.848Z,12.20
2018-12-04T13:39:35.443Z,11.70
2018-12-04T13:42:04.234Z,11.60
2018-12-04T13:44:32.889Z,11.50
2018-12-04T13:47:01.506Z,11.50
2018-12-04T13:49:30.119Z,11.60
2018-12-04T13:52:01.640Z,11.50
2018-12-04T13:54:42.323Z,11.50
2018-12-04T13:57:11.660Z,11.40
2018-12-04T13:59:45.971Z,11.40
2018-12-04T14:04:52.060Z,11.30
2018-12-04T14:07:24.128Z,11.10
2018-12-04T14:09:52.753Z,11.30
2018-12-04T14:12:21.360Z,11.90
2018-12-04T14:14:50.957Z,11.70
2018-12-04T14:17:20.479Z,11.30
2018-12-04T14:19:48.868Z,11.10
2018-12-04T14:22:19.558Z,10.70
2018-12-04T14:24:48.250Z,10.70
2018-12-04T14:27:16.832Z,10.80
2018-12-04T14:29:45.337Z,10.90
2018-12-04T14:32:13.701Z,10.80
2018-12-04T14:34:42.206Z,10.50
2018-12-04T14:37:10.626Z,10.40
2018-12-04T14:39:39.427Z,10.30
2018-12-04T14:42:07.939Z,10.20
2018-12-04T14:44:38.420Z,9.80
2018-12-04T14:47:08.153Z,9.80
2018-12-04T14:49:39.490Z,9.70
2018-12-04T14:52:08.064Z,9.70
2018-12-04T14:54:43.511Z,9.60
2018-12-04T14:57:13.789Z,9.70
2018-12-04T15:02:41.452Z,9.80
2018-12-04T15:05:10.237Z,9.80
2018-12-04T15:07:38.662Z,9.70
2018-12-04T15:10:09.519Z,9.60
2018-12-04T15:12:37.987Z,9.60
2018-12-04T15:15:06.813Z,9.60
2018-12-04T15:17:35.144Z,9.60
2018-12-04T15:20:03.780Z,9.60
2018-12-04T15:22:32.116Z,9.70
2018-12-04T15:25:00.477Z,9.60
2018-12-04T15:27:28.790Z,9.60
2018-12-04T15:29:59.268Z,9.50
2018-12-04T15:32:27.691Z,9.50
2018-12-04T15:34:56.013Z,9.50
2018-12-04T15:37:24.428Z,9.30
2018-12-04T15:39:53.144Z,9.30
2018-12-04T15:42:21.761Z,9.20
2018-12-04T15:44:50.001Z,9.10
2018-12-04T15:47:18.245Z,9.10
2018-12-04T15:49:46.540Z,9.10
2018-12-04T15:52:14.756Z,9.00
2018-12-04T15:54:42.987Z,9.00
2018-12-04T15:57:11.258Z,8.90
2018-12-04T15:59:39.565Z,8.80
2018-12-04T16:02:08.080Z,8.80
2018-12-04T16:04:38.201Z,8.80
2018-12-04T16:07:06.466Z,8.70
2018-12-04T16:09:34.923Z,8.70
2018-12-04T16:12:03.308Z,8.60
2018-12-04T16:14:38.190Z,8.50
2018-12-04T16:17:06.457Z,8.50
2018-12-04T16:19:34.724Z,8.60
2018-12-04T16:22:03.112Z,8.50
2018-12-04T16:24:31.363Z,8.40
2018-12-04T16:26:59.562Z,8.40
2018-12-04T16:29:27.765Z,8.40
2018-12-04T16:31:56.015Z,8.40
2018-12-04T16:34:24.239Z,8.40
2018-12-04T16:36:52.645Z,8.30
2018-12-04T16:39:20.919Z,8.10
2018-12-04T16:41:49.196Z,8.10
2018-12-04T16:44:17.449Z,8.10
2018-12-04T16:46:45.800Z,8.10
2018-12-04T16:49:14.102Z,8.00
2018-12-04T16:51:42.391Z,8.00
2018-12-04T16:54:10.732Z,8.10
2018-12-04T16:56:39.736Z,8.10
2018-12-04T16:59:08.075Z,8.00
2018-12-04T17:04:10.976Z,7.90
2018-12-04T17:06:39.420Z,7.90
2018-12-04T17:09:08.148Z,7.90
2018-12-04T17:11:36.764Z,7.90
2018-12-04T17:14:05.078Z,7.80
2018-12-04T17:16:33.324Z,7.80
2018-12-04T17:19:01.660Z,7.70
2018-12-04T17:21:29.912Z,7.70
2018-12-04T17:23:58.192Z,7.60
2018-12-04T17:26:26.579Z,7.70
2018-12-04T17:28:54.860Z,7.60
2018-12-04T17:31:23.141Z,7.60
2018-12-04T17:33:51.530Z,7.60
2018-12-04T17:36:20.330Z,7.50
2018-12-04T17:38:48.832Z,7.50
2018-12-04T17:41:17.121Z,7.40
2018-12-04T17:43:45.491Z,7.20
2018-12-04T17:46:13.742Z,7.30
2018-12-04T17:48:42.577Z,7.30
2018-12-04T17:51:10.951Z,7.40
2018-12-04T17:53:39.534Z,7.40
2018-12-04T17:56:08.033Z,7.40
2018-12-04T17:58:36.332Z,7.50
2018-12-04T18:01:04.688Z,7.50
2018-12-04T18:03:32.992Z,7.50
2018-12-04T18:06:01.467Z,7.50
2018-12-04T18:08:30.274Z,7.60
2018-12-04T18:10:59.011Z,7.60
2018-12-04T18:13:27.894Z,7.50
2018-12-04T18:15:56.462Z,7.40
2018-12-04T18:18:25.026Z,7.30
2018-12-04T18:20:53.412Z,7.30
2018-12-04T18:23:21.719Z,7.20
2018-12-04T18:25:49.991Z,7.20
2018-12-04T18:28:18.405Z,7.30
2018-12-04T18:30:46.727Z,7.40
2018-12-04T18:33:15.088Z,7.20
2018-12-04T18:35:44.077Z,7.20
2018-12-04T18:38:13.304Z,7.10
2018-12-04T18:40:41.785Z,7.00
2018-12-04T18:43:10.512Z,7.00
2018-12-04T18:45:38.847Z,6.90
2018-12-04T18:48:07.178Z,7.00
2018-12-04T18:50:35.492Z,6.90
2018-12-04T18:53:05.444Z,6.80
2018-12-04T18:55:34.644Z,6.80
2018-12-04T18:58:22.511Z,6.80
2018-12-04T19:00:51.473Z,6.90
2018-12-04T19:03:20.736Z,6.80
2018-12-04T19:05:49.763Z,6.80
2018-12-04T19:08:24.435Z,6.70
2018-12-04T19:10:51.063Z,6.80
2018-12-04T19:13:19.293Z,6.80
2018-12-04T19:15:47.560Z,6.90
2018-12-04T19:18:15.810Z,6.90
2018-12-04T19:20:44.437Z,6.90
2018-12-04T19:23:13.010Z,6.80
2018-12-04T19:25:41.416Z,6.70
2018-12-04T19:28:09.799Z,6.90
2018-12-04T19:30:38.075Z,6.90
2018-12-04T19:33:06.440Z,6.80
2018-12-04T19:35:34.802Z,6.70
2018-12-04T19:38:03.037Z,6.50
2018-12-04T19:40:31.334Z,6.40
2018-12-04T19:42:59.560Z,6.50
2018-12-04T19:45:27.932Z,6.50
2018-12-04T19:47:56.256Z,6.50
2018-12-04T19:50:24.549Z,6.30
2018-12-04T19:52:52.931Z,6.40
2018-12-04T19:55:21.308Z,6.50
2018-12-04T19:57:49.649Z,6.50
2018-12-04T20:00:17.958Z,6.40
2018-12-04T20:02:46.411Z,6.20
2018-12-04T20:05:16.361Z,6.10
2018-12-04T20:07:44.719Z,6.00
2018-12-04T20:10:13.111Z,6.00
2018-12-04T20:12:41.603Z,6.10
2018-12-04T20:15:10.021Z,6.00
2018-12-04T20:17:38.227Z,6.00
2018-12-04T20:20:06.495Z,6.10
2018-12-04T20:22:34.831Z,6.10
2018-12-04T20:25:03.230Z,6.10
2018-12-04T20:27:31.664Z,6.00
2018-12-04T20:29:59.869Z,6.00
2018-12-04T20:32:28.143Z,6.00
2018-12-04T20:34:56.420Z,6.00
2018-12-04T20:37:24.825Z,6.00
2018-12-04T20:39:53.195Z,5.90
2018-12-04T20:42:23.420Z,5.90
2018-12-04T20:44:52.269Z,5.90
2018-12-04T20:47:27.117Z,5.70
2018-12-04T20:49:55.423Z,5.70
2018-12-04T20:52:23.835Z,5.80
2018-12-04T20:54:52.992Z,5.80
2018-12-04T20:57:21.771Z,5.70
2018-12-04T20:59:50.252Z,5.70
2018-12-04T21:02:18.922Z,5.70
2018-12-04T21:05:05.474Z,5.70
2018-12-04T21:07:36.262Z,5.80
2018-12-04T21:10:09.219Z,5.70
2018-12-04T21:12:52.833Z,5.70
2018-12-04T21:15:33.315Z,5.60
2018-12-04T21:19:50.634Z,5.60
2018-12-04T21:22:21.162Z,5.40
2018-12-04T21:24:50.874Z,5.30
2018-12-04T21:27:24.828Z,5.30
2018-12-04T21:29:58.999Z,5.10
2018-12-04T21:32:48.717Z,5.10
2018-12-04T21:35:31.740Z,5.00
2018-12-04T21:43:42.205Z,5.00
2018-12-04T21:53:50.562Z,4.70
2018-12-04T21:56:30.284Z,4.50
2018-12-04T21:59:00.042Z,4.50
2018-12-04T22:01:29.358Z,4.40
2018-12-04T22:03:58.573Z,4.30
2018-12-04T22:06:28.763Z,4.30
2018-12-04T22:08:57.758Z,4.30
2018-12-04T22:11:26.857Z,4.30
2018-12-04T22:13:56.869Z,4.30
2018-12-04T22:16:25.754Z,4.30
2018-12-04T22:18:55.566Z,4.10
2018-12-04T22:21:24.867Z,4.20
2018-12-04T22:24:00.173Z,4.20
2018-12-04T22:32:06.925Z,4.20
2018-12-04T22:34:36.429Z,4.20
2018-12-04T22:37:05.734Z,4.10
2018-12-04T22:39:34.725Z,4.10
2018-12-04T22:42:04.101Z,4.10
2018-12-04T22:44:33.034Z,4.10
2018-12-04T22:47:05.789Z,4.00
2018-12-04T22:49:35.586Z,3.80
2018-12-04T22:52:05.477Z,3.70
2018-12-04T22:54:34.168Z,3.60
2018-12-04T22:57:03.254Z,3.60
2018-12-04T22:59:31.635Z,3.60
2018-12-04T23:02:00.479Z,3.50
2018-12-04T23:04:29.265Z,3.40
2018-12-04T23:06:57.953Z,3.40
2018-12-04T23:09:26.838Z,3.50
2018-12-04T23:11:56.347Z,3.50
2018-12-04T23:14:31.967Z,3.60
2018-12-04T23:17:02.990Z,3.50
2018-12-04T23:19:32.369Z,3.50
2018-12-04T23:24:42.401Z,3.60
2018-12-04T23:27:11.304Z,3.60
2018-12-04T23:29:39.670Z,3.50
2018-12-04T23:32:08.055Z,3.60
2018-12-04T23:34:36.697Z,3.60
2018-12-04T23:37:05.426Z,3.60
2018-12-04T23:39:33.848Z,3.60
2018-12-04T23:42:02.305Z,3.60
2018-12-04T23:44:30.760Z,3.60
2018-12-04T23:47:06.317Z,3.60
2018-12-04T23:49:34.706Z,3.50
2018-12-04T23:52:03.344Z,3.60
2018-12-04T23:54:31.964Z,3.60
2018-12-04T23:57:00.525Z,3.60
2018-12-04T23:59:30.297Z,3.70
